Time;durP1;ratioP1;P1;durP2;ratioP2;P2;SDS_P1;SDS_P2;PMS_P1;PMS_P2;Temp;Humidity;BMP_temperature;BMP_pressure;BME280_temperature;BME280_humidity;BME280_pressure;Samples;Min_cycle;Max_cycle;Signal;HPM_P1;HPM_P2
2021/05/07 00:01:41;;;;;;;;;;;18.80;59.10;;;;;;5050764;28;19917;-78
2021/05/07 00:04:14;;;;;;;;;;;18.80;59.10;;;;;;5051740;28;19920;-78
2021/05/07 00:06:52;;;;;;;;;;;18.80;59.10;;;;;;5034964;28;19916;-78
2021/05/07 00:09:29;;;;;;;;;;;18.80;59.10;;;;;;5051858;28;19921;-78
2021/05/07 00:12:00;;;;;;;;;;;18.70;59.10;;;;;;5029619;28;20334;-78
2021/05/07 00:14:30;;;;;;;;;;;18.80;59.10;;;;;;5046690;28;19948;-78
2021/05/07 00:16:56;;;;;;;;;;;18.80;59.10;;;;;;5030750;28;19955;-78
2021/05/07 00:19:26;;;;;;;;;;;18.80;59.00;;;;;;5057009;28;19967;-78
2021/05/07 00:21:55;;;;;;;;;;;18.80;59.00;;;;;;5051389;28;20465;-78
2021/05/07 00:24:25;;;;;;;;;;;18.80;59.00;;;;;;5053238;28;19927;-78
2021/05/07 00:26:51;;;;;;;;;;;18.80;59.00;;;;;;5025415;28;19913;-78
2021/05/07 00:29:29;;;;;;;;;;;18.80;59.00;;;;;;5052247;28;20366;-79
2021/05/07 00:31:59;;;;;;;;;;;18.80;59.00;;;;;;5048121;28;19920;-78
2021/05/07 00:34:26;;;;;;;;;;;18.80;59.00;;;;;;5034919;28;19927;-78
2021/05/07 00:36:51;;;;;;;;;;;18.80;59.00;;;;;;5050108;28;19913;-78
2021/05/07 00:39:17;;;;;;;;;;;18.80;59.00;;;;;;5052378;28;19917;-78
2021/05/07 00:41:53;;;;;;;;;;;18.80;59.00;;;;;;5035212;28;20358;-81
2021/05/07 00:44:24;;;;;;;;;;;18.80;59.00;;;;;;5049993;28;19920;-78
2021/05/07 00:46:52;;;;;;;;;;;18.80;58.90;;;;;;5030558;28;19956;-79
2021/05/07 00:49:34;;;;;;;;;;;18.80;59.00;;;;;;5046347;28;19916;-79
2021/05/07 00:52:07;;;;;;;;;;;18.70;59.00;;;;;;5048901;28;20012;-79
2021/05/07 00:54:35;;;;;;;;;;;18.80;59.00;;;;;;5050176;28;19970;-79
2021/05/07 00:57:02;;;;;;;;;;;18.70;59.00;;;;;;5047810;28;19917;-80
2021/05/07 00:59:32;;;;;;;;;;;18.80;58.90;;;;;;5029750;28;19917;-79
2021/05/07 01:01:58;;;;;;;;;;;18.80;58.90;;;;;;5028682;28;19917;-79
2021/05/07 01:04:29;;;;;;;;;;;18.80;59.00;;;;;;5032014;28;20319;-78
2021/05/07 01:06:57;;;;;;;;;;;18.80;59.00;;;;;;5051222;28;20420;-79
2021/05/07 01:09:23;;;;;;;;;;;18.80;58.90;;;;;;5046321;28;19924;-79
2021/05/07 01:11:53;;;;;;;;;;;18.80;58.90;;;;;;5030231;28;20325;-79
2021/05/07 01:14:24;;;;;;;;;;;18.80;58.90;;;;;;5050601;28;19920;-79
2021/05/07 01:16:54;;;;;;;;;;;18.80;58.90;;;;;;5041411;28;21277;-79
2021/05/07 01:19:20;;;;;;;;;;;18.80;58.90;;;;;;5052198;28;19966;-78
2021/05/07 01:21:45;;;;;;;;;;;18.80;58.90;;;;;;5033411;28;19916;-79
2021/05/07 01:24:11;;;;;;;;;;;18.70;58.90;;;;;;5052124;28;20362;-78
2021/05/07 01:26:43;;;;;;;;;;;18.70;58.90;;;;;;5050927;28;19935;-78
2021/05/07 01:29:12;;;;;;;;;;;18.80;58.90;;;;;;5051277;28;19966;-78
2021/05/07 01:31:45;;;;;;;;;;;18.70;58.90;;;;;;5051549;28;19959;-79
2021/05/07 01:34:25;;;;;;;;;;;18.70;58.90;;;;;;5038219;28;19921;-78
2021/05/07 01:36:51;;;;;;;;;;;18.70;58.80;;;;;;5050866;28;19921;-79
2021/05/07 01:39:16;;;;;;;;;;;18.70;58.80;;;;;;5042952;28;19959;-78
2021/05/07 01:41:42;;;;;;;;;;;18.80;58.80;;;;;;5047913;28;19947;-79
2021/05/07 01:44:07;;;;;;;;;;;18.80;58.80;;;;;;5030858;28;20011;-79
2021/05/07 01:46:33;;;;;;;;;;;18.70;58.80;;;;;;5030290;28;19962;-79
2021/05/07 01:49:03;;;;;;;;;;;18.80;58.80;;;;;;5030511;28;19999;-79
2021/05/07 01:51:29;;;;;;;;;;;18.70;58.80;;;;;;5051039;28;19912;-78
2021/05/07 01:54:02;;;;;;;;;;;18.70;58.80;;;;;;5054433;28;20373;-78
2021/05/07 01:56:33;;;;;;;;;;;18.70;58.80;;;;;;5031363;28;20384;-80
2021/05/07 01:59:12;;;;;;;;;;;18.70;58.70;;;;;;5029660;28;19923;-79
2021/05/07 02:01:43;;;;;;;;;;;18.70;58.70;;;;;;5046204;28;19921;-79
2021/05/07 02:04:08;;;;;;;;;;;18.70;58.70;;;;;;5031090;28;19921;-79
2021/05/07 02:06:36;;;;;;;;;;;18.80;58.80;;;;;;5050996;28;19928;-79
2021/05/07 02:09:02;;;;;;;;;;;18.80;58.70;;;;;;5033404;28;19928;-79
2021/05/07 02:11:32;;;;;;;;;;;18.80;58.70;;;;;;5050341;28;19912;-79
2021/05/07 02:13:58;;;;;;;;;;;18.70;58.70;;;;;;5052313;28;19939;-78
2021/05/07 02:16:28;;;;;;;;;;;18.70;58.70;;;;;;5055286;28;19920;-79
2021/05/07 02:18:58;;;;;;;;;;;18.70;58.70;;;;;;5053933;28;19960;-78
2021/05/07 02:21:24;;;;;;;;;;;18.70;58.70;;;;;;5050708;28;20007;-79
2021/05/07 02:23:54;;;;;;;;;;;18.70;58.70;;;;;;5033738;28;20024;-78
2021/05/07 02:26:26;;;;;;;;;;;18.70;58.70;;;;;;5052477;28;19913;-78
2021/05/07 02:28:51;;;;;;;;;;;18.70;58.70;;;;;;5033231;28;19955;-78
2021/05/07 02:31:22;;;;;;;;;;;18.70;58.60;;;;;;5053439;28;19913;-78
2021/05/07 02:33:53;;;;;;;;;;;18.70;58.60;;;;;;5055371;28;19928;-79
2021/05/07 02:36:19;;;;;;;;;;;18.70;58.60;;;;;;5054240;28;19920;-79
2021/05/07 02:38:44;;;;;;;;;;;18.70;58.60;;;;;;5027471;28;19920;-79
2021/05/07 02:41:15;;;;;;;;;;;18.70;58.60;;;;;;5030517;28;19921;-78
2021/05/07 02:43:54;;;;;;;;;;;18.70;58.60;;;;;;5053465;28;19923;-79
2021/05/07 02:46:25;;;;;;;;;;;18.70;58.60;;;;;;5054217;28;20018;-78
2021/05/07 02:48:53;;;;;;;;;;;18.70;58.60;;;;;;5023973;28;19939;-79
2021/05/07 02:51:30;;;;;;;;;;;18.70;58.60;;;;;;5050192;28;19935;-78
2021/05/07 02:53:56;;;;;;;;;;;18.70;58.60;;;;;;5050567;28;19917;-79
2021/05/07 02:56:26;;;;;;;;;;;18.70;58.60;;;;;;5053140;28;19919;-79
2021/05/07 02:58:57;;;;;;;;;;;18.70;58.60;;;;;;5048095;28;20350;-79
2021/05/07 03:01:26;;;;;;;;;;;18.70;58.60;;;;;;5035523;28;19944;-78
2021/05/07 03:03:57;;;;;;;;;;;18.70;58.60;;;;;;5031435;28;20330;-79
2021/05/07 03:06:27;;;;;;;;;;;18.70;58.60;;;;;;5032532;28;20015;-78
2021/05/07 03:08:53;;;;;;;;;;;18.70;58.60;;;;;;5048143;28;20320;-78
2021/05/07 03:11:18;;;;;;;;;;;18.70;58.60;;;;;;5042237;28;19913;-79
2021/05/07 03:13:51;;;;;;;;;;;18.70;58.60;;;;;;5051225;28;19913;-76
2021/05/07 03:16:23;;;;;;;;;;;18.70;58.60;;;;;;5050689;28;19913;-77
2021/05/07 03:18:51;;;;;;;;;;;18.70;58.60;;;;;;5051834;28;19920;-76
2021/05/07 03:21:21;;;;;;;;;;;18.70;58.60;;;;;;5032874;28;19967;-76
2021/05/07 03:23:47;;;;;;;;;;;18.70;58.60;;;;;;5035091;28;20354;-76
2021/05/07 03:26:12;;;;;;;;;;;18.70;58.60;;;;;;5053314;28;19999;-77
2021/05/07 03:28:39;;;;;;;;;;;18.70;58.50;;;;;;5053917;28;20266;-77
2021/05/07 03:31:10;;;;;;;;;;;18.70;58.50;;;;;;5053632;28;20358;-76
2021/05/07 03:33:36;;;;;;;;;;;18.70;58.50;;;;;;5034345;28;19912;-77
2021/05/07 03:36:02;;;;;;;;;;;18.70;58.50;;;;;;5052668;28;19952;-77
2021/05/07 03:38:28;;;;;;;;;;;18.70;58.50;;;;;;5029700;28;19959;-77
2021/05/07 03:40:53;;;;;;;;;;;18.70;58.50;;;;;;5034850;28;20419;-76
2021/05/07 03:43:19;;;;;;;;;;;18.70;58.50;;;;;;5035458;28;19913;-76
2021/05/07 03:45:44;;;;;;;;;;;18.70;58.50;;;;;;5035207;28;19913;-77
2021/05/07 03:48:14;;;;;;;;;;;18.70;58.50;;;;;;5052569;28;19955;-77
2021/05/07 03:50:45;;;;;;;;;;;18.70;58.60;;;;;;5036907;28;20452;-76
2021/05/07 03:53:14;;;;;;;;;;;18.70;58.60;;;;;;5052363;28;19966;-77
2021/05/07 03:55:40;;;;;;;;;;;18.70;58.60;;;;;;5046833;28;19955;-76
2021/05/07 03:58:06;;;;;;;;;;;18.70;58.60;;;;;;5054165;28;19952;-76
2021/05/07 04:00:39;;;;;;;;;;;18.60;58.60;;;;;;5051071;28;19917;-77
2021/05/07 04:03:05;;;;;;;;;;;18.70;58.60;;;;;;5052211;28;19924;-77
2021/05/07 04:05:31;;;;;;;;;;;18.70;58.60;;;;;;5034422;28;19913;-76
2021/05/07 04:08:41;;;;;;;;;;;18.70;58.60;;;;;;5048311;28;19917;-76
2021/05/07 04:13:39;;;;;;;;;;;18.70;58.50;;;;;;5049158;28;19935;-76
2021/05/07 04:16:08;;;;;;;;;;;18.70;58.50;;;;;;5053658;28;20251;-76
2021/05/07 04:18:34;;;;;;;;;;;18.70;58.50;;;;;;5035042;28;19952;-77
2021/05/07 04:21:00;;;;;;;;;;;18.70;58.50;;;;;;5052325;28;20008;-77
2021/05/07 04:23:39;;;;;;;;;;;18.70;58.50;;;;;;5049423;28;20015;-77
2021/05/07 04:26:05;;;;;;;;;;;18.70;58.50;;;;;;5041417;28;19913;-76
2021/05/07 04:28:31;;;;;;;;;;;18.70;58.50;;;;;;5051479;28;19939;-76
2021/05/07 04:30:56;;;;;;;;;;;18.70;58.50;;;;;;5052562;28;19920;-76
2021/05/07 04:33:22;;;;;;;;;;;18.70;58.50;;;;;;5034399;28;19917;-76
2021/05/07 04:35:47;;;;;;;;;;;18.70;58.50;;;;;;5049330;28;19912;-77
2021/05/07 04:38:13;;;;;;;;;;;18.70;58.50;;;;;;5053702;28;19917;-76
2021/05/07 04:40:44;;;;;;;;;;;18.70;58.50;;;;;;5034170;28;19917;-77
2021/05/07 04:43:09;;;;;;;;;;;18.70;58.50;;;;;;5035173;28;19924;-77
2021/05/07 04:45:40;;;;;;;;;;;18.70;58.50;;;;;;5049321;28;19917;-77
2021/05/07 04:48:15;;;;;;;;;;;18.70;58.50;;;;;;5030464;28;19975;-77
2021/05/07 04:50:41;;;;;;;;;;;18.70;58.50;;;;;;5048168;28;20005;-76
2021/05/07 04:53:11;;;;;;;;;;;18.70;58.50;;;;;;5032657;28;19952;-77
2021/05/07 04:55:42;;;;;;;;;;;18.70;58.50;;;;;;5050627;28;19920;-76
2021/05/07 04:58:07;;;;;;;;;;;18.70;58.50;;;;;;5052561;28;19913;-76
2021/05/07 05:00:33;;;;;;;;;;;18.70;58.50;;;;;;5033552;28;20278;-77
2021/05/07 05:03:03;;;;;;;;;;;18.70;58.50;;;;;;5031971;28;20317;-77
2021/05/07 05:05:29;;;;;;;;;;;18.70;58.50;;;;;;5025511;28;20274;-77
2021/05/07 05:07:57;;;;;;;;;;;18.70;58.50;;;;;;5034792;28;19913;-77
2021/05/07 05:10:28;;;;;;;;;;;18.70;58.50;;;;;;5050711;28;19913;-77
2021/05/07 05:12:53;;;;;;;;;;;18.70;58.50;;;;;;5051261;28;19912;-77
2021/05/07 05:15:31;;;;;;;;;;;18.70;58.50;;;;;;5032328;28;19920;-77
2021/05/07 05:18:02;;;;;;;;;;;18.70;58.50;;;;;;5034292;28;19913;-76
2021/05/07 05:20:27;;;;;;;;;;;18.70;58.50;;;;;;5050091;28;19956;-77
2021/05/07 05:22:58;;;;;;;;;;;18.70;58.50;;;;;;5028061;28;20012;-77
2021/05/07 05:25:23;;;;;;;;;;;18.70;58.60;;;;;;5052094;28;19919;-77
2021/05/07 05:27:49;;;;;;;;;;;18.60;58.50;;;;;;5031522;28;20476;-77
2021/05/07 05:30:15;;;;;;;;;;;18.70;58.60;;;;;;5033840;28;19913;-77
2021/05/07 05:32:40;;;;;;;;;;;18.70;58.50;;;;;;5045730;28;20285;-76
2021/05/07 05:35:06;;;;;;;;;;;18.70;58.60;;;;;;5030049;28;19920;-76
2021/05/07 05:37:31;;;;;;;;;;;18.70;58.60;;;;;;5050318;28;19917;-77
2021/05/07 05:39:57;;;;;;;;;;;18.60;58.60;;;;;;5025451;28;19917;-77
2021/05/07 05:42:22;;;;;;;;;;;18.70;58.60;;;;;;5024619;28;19921;-76
2021/05/07 05:44:48;;;;;;;;;;;18.70;58.60;;;;;;5030508;28;20035;-77
2021/05/07 05:47:19;;;;;;;;;;;18.60;58.60;;;;;;5035708;28;19913;-78
2021/05/07 05:49:45;;;;;;;;;;;18.70;58.60;;;;;;5051308;28;19909;-79
2021/05/07 05:52:11;;;;;;;;;;;18.70;58.60;;;;;;5026481;28;20439;-78
2021/05/07 05:54:41;;;;;;;;;;;18.70;58.60;;;;;;5050798;28;20313;-79
2021/05/07 05:57:07;;;;;;;;;;;18.70;58.50;;;;;;5030338;28;19913;-78
2021/05/07 05:59:38;;;;;;;;;;;18.70;58.50;;;;;;5050726;28;19963;-80
2021/05/07 06:02:08;;;;;;;;;;;18.70;58.60;;;;;;5026354;28;19963;-76
2021/05/07 06:04:39;;;;;;;;;;;18.70;58.50;;;;;;5031180;28;19919;-76
2021/05/07 06:07:04;;;;;;;;;;;18.70;58.60;;;;;;5050951;28;19913;-76
2021/05/07 06:09:30;;;;;;;;;;;18.70;58.60;;;;;;5048658;28;19935;-74
2021/05/07 06:12:00;;;;;;;;;;;18.60;58.60;;;;;;5046463;28;20140;-78
2021/05/07 06:14:26;;;;;;;;;;;18.70;58.60;;;;;;5041871;28;19913;-75
2021/05/07 06:16:56;;;;;;;;;;;18.60;58.60;;;;;;5032819;28;20404;-75
2021/05/07 06:19:22;;;;;;;;;;;18.70;58.60;;;;;;5036505;28;21268;-77
2021/05/07 06:21:52;;;;;;;;;;;18.70;58.60;;;;;;5050965;28;19924;-76
2021/05/07 06:24:18;;;;;;;;;;;18.70;58.50;;;;;;5031478;28;20309;-77
2021/05/07 06:26:48;;;;;;;;;;;18.80;58.40;;;;;;5046250;28;19913;-76
2021/05/07 06:29:14;;;;;;;;;;;18.80;58.30;;;;;;5031119;28;20417;-76
2021/05/07 06:31:39;;;;;;;;;;;18.80;58.20;;;;;;5050351;28;20068;-77
2021/05/07 06:34:13;;;;;;;;;;;18.80;58.10;;;;;;5030720;28;19939;-76
2021/05/07 06:36:38;;;;;;;;;;;18.80;58.20;;;;;;5047124;28;19919;-76
2021/05/07 06:39:04;;;;;;;;;;;18.80;58.10;;;;;;5045501;28;19921;-77
2021/05/07 06:41:35;;;;;;;;;;;18.80;58.10;;;;;;5051456;28;19943;-76
2021/05/07 06:44:06;;;;;;;;;;;18.80;58.10;;;;;;5050933;28;20384;-76
2021/05/07 06:46:32;;;;;;;;;;;18.90;58.00;;;;;;5041046;28;20006;-77
2021/05/07 06:48:57;;;;;;;;;;;18.90;58.00;;;;;;5050746;28;19952;-76
2021/05/07 06:51:23;;;;;;;;;;;18.90;58.00;;;;;;5050923;28;19940;-77
2021/05/07 06:53:48;;;;;;;;;;;18.90;58.00;;;;;;5050854;28;20008;-78
2021/05/07 06:56:15;;;;;;;;;;;19.00;58.00;;;;;;5047601;28;20409;-77
2021/05/07 06:58:46;;;;;;;;;;;18.90;58.00;;;;;;5030512;28;19917;-76
2021/05/07 07:01:11;;;;;;;;;;;18.90;58.00;;;;;;5052113;28;19971;-76
2021/05/07 07:03:42;;;;;;;;;;;18.90;58.00;;;;;;5051837;28;20239;-76
2021/05/07 07:06:22;;;;;;;;;;;19.00;58.00;;;;;;5053676;28;19982;-76
2021/05/07 07:09:01;;;;;;;;;;;18.90;57.90;;;;;;5034042;28;20003;-80
2021/05/07 07:11:53;;;;;;;;;;;19.00;57.90;;;;;;5051063;28;19921;-78
2021/05/07 07:14:25;;;;;;;;;;;19.00;57.80;;;;;;5053172;28;19940;-76
2021/05/07 07:17:02;;;;;;;;;;;19.00;57.70;;;;;;5032107;28;19917;-77
2021/05/07 07:19:27;;;;;;;;;;;19.10;57.60;;;;;;5049237;28;19916;-77
2021/05/07 07:21:53;;;;;;;;;;;19.10;57.60;;;;;;5033459;28;20380;-78
2021/05/07 07:24:23;;;;;;;;;;;19.10;57.50;;;;;;5053676;28;19916;-78
2021/05/07 07:26:49;;;;;;;;;;;19.10;57.50;;;;;;5054428;28;19955;-78
2021/05/07 07:29:14;;;;;;;;;;;19.10;57.60;;;;;;5035546;28;19952;-77
2021/05/07 07:31:45;;;;;;;;;;;19.00;57.60;;;;;;5032529;28;20391;-77
2021/05/07 07:34:15;;;;;;;;;;;19.00;57.60;;;;;;5031641;28;19916;-75
2021/05/07 07:36:46;;;;;;;;;;;19.00;57.70;;;;;;5049991;28;20282;-75
2021/05/07 07:39:19;;;;;;;;;;;19.00;57.70;;;;;;5045998;28;19943;-75
2021/05/07 07:41:48;;;;;;;;;;;18.90;57.80;;;;;;5042705;28;19956;-76
2021/05/07 07:44:14;;;;;;;;;;;18.90;57.90;;;;;;5036613;28;19913;-76
2021/05/07 07:46:44;;;;;;;;;;;18.80;58.00;;;;;;5053544;28;19959;-75
2021/05/07 07:49:16;;;;;;;;;;;18.80;58.00;;;;;;5037324;28;19913;-77
2021/05/07 07:51:41;;;;;;;;;;;18.90;58.00;;;;;;5046798;28;19916;-76
2021/05/07 07:54:11;;;;;;;;;;;18.90;58.00;;;;;;5032024;28;20382;-75
2021/05/07 07:56:37;;;;;;;;;;;18.90;58.00;;;;;;5033915;28;20282;-76
2021/05/07 07:59:03;;;;;;;;;;;18.90;58.00;;;;;;5050696;28;19917;-76
2021/05/07 08:01:29;;;;;;;;;;;18.90;57.90;;;;;;5049414;28;19917;-76
2021/05/07 08:04:02;;;;;;;;;;;18.90;57.90;;;;;;5033318;28;19919;-76
2021/05/07 08:06:28;;;;;;;;;;;18.90;57.90;;;;;;5025339;28;19913;-77
2021/05/07 08:08:53;;;;;;;;;;;18.80;57.90;;;;;;5053298;28;19928;-76
2021/05/07 08:11:20;;;;;;;;;;;18.90;58.00;;;;;;5049752;28;21385;-75
2021/05/07 08:13:46;;;;;;;;;;;18.90;58.00;;;;;;5029471;28;19917;-76
2021/05/07 08:16:14;;;;;;;;;;;18.80;58.00;;;;;;5030090;28;19913;-76
2021/05/07 08:19:01;;;;;;;;;;;18.80;58.00;;;;;;5046821;28;19913;-76
2021/05/07 08:21:40;;;;;;;;;;;18.90;58.00;;;;;;5028943;28;19917;-76
2021/05/07 08:24:11;;;;;;;;;;;18.80;57.90;;;;;;5050767;28;19921;-76
2021/05/07 08:26:36;;;;;;;;;;;18.90;57.90;;;;;;5044871;28;19919;-76
2021/05/07 08:29:08;;;;;;;;;;;18.90;57.90;;;;;;5029059;28;19916;-76
2021/05/07 08:31:35;;;;;;;;;;;19.00;57.80;;;;;;5050785;28;19913;-75
2021/05/07 08:34:03;;;;;;;;;;;18.90;57.80;;;;;;5046783;28;19917;-76
2021/05/07 08:36:34;;;;;;;;;;;18.90;57.70;;;;;;5047028;28;21081;-76
2021/05/07 08:38:59;;;;;;;;;;;19.00;57.70;;;;;;5045603;28;19919;-75
2021/05/07 08:41:25;;;;;;;;;;;19.00;57.70;;;;;;5049050;28;19916;-75
2021/05/07 08:43:55;;;;;;;;;;;19.00;57.70;;;;;;5047983;28;19927;-75
2021/05/07 08:46:26;;;;;;;;;;;18.90;57.70;;;;;;5049223;28;19921;-75
2021/05/07 08:48:59;;;;;;;;;;;18.90;57.80;;;;;;5047362;28;19921;-75
2021/05/07 08:51:29;;;;;;;;;;;18.90;57.80;;;;;;5045710;28;19913;-75
2021/05/07 08:54:07;;;;;;;;;;;18.90;57.80;;;;;;5048399;28;19944;-75
2021/05/07 08:56:38;;;;;;;;;;;18.90;57.90;;;;;;5034801;28;19916;-76
2021/05/07 08:59:04;;;;;;;;;;;18.90;57.90;;;;;;5029379;28;20015;-76
2021/05/07 09:01:44;;;;;;;;;;;18.90;57.90;;;;;;5048351;28;20457;-75
2021/05/07 09:04:13;;;;;;;;;;;18.80;58.00;;;;;;5048290;28;19921;-75
2021/05/07 09:06:40;;;;;;;;;;;18.80;58.00;;;;;;5051006;28;19913;-75
2021/05/07 09:09:26;;;;;;;;;;;18.80;58.00;;;;;;5042002;28;19921;-75
2021/05/07 09:11:55;;;;;;;;;;;18.80;57.90;;;;;;5025007;28;19967;-76
2021/05/07 09:14:24;;;;;;;;;;;18.90;57.80;;;;;;5025055;28;19924;-75
2021/05/07 09:17:08;;;;;;;;;;;19.00;57.70;;;;;;5040612;28;19917;-75
2021/05/07 09:19:37;;;;;;;;;;;19.00;57.50;;;;;;5041450;28;20059;-76
2021/05/07 09:22:05;;;;;;;;;;;19.10;57.30;;;;;;5022641;28;19925;-76
2021/05/07 09:24:48;;;;;;;;;;;19.10;57.30;;;;;;5026697;28;20370;-77
2021/05/07 09:27:29;;;;;;;;;;;19.10;57.20;;;;;;5042495;28;19950;-75
2021/05/07 09:30:00;;;;;;;;;;;19.20;57.00;;;;;;5027388;28;19925;-76
2021/05/07 09:32:40;;;;;;;;;;;19.20;56.90;;;;;;5026011;28;19913;-75
2021/05/07 09:35:10;;;;;;;;;;;19.20;56.90;;;;;;5032848;28;19913;-75
2021/05/07 09:37:35;;;;;;;;;;;19.20;57.00;;;;;;5031439;28;20286;-75
2021/05/07 09:40:11;;;;;;;;;;;19.20;57.00;;;;;;5010004;28;19925;-76
2021/05/07 09:42:41;;;;;;;;;;;19.20;57.00;;;;;;5046518;28;20024;-75
2021/05/07 09:45:24;;;;;;;;;;;19.10;57.20;;;;;;5030154;28;19917;-76
2021/05/07 09:47:54;;;;;;;;;;;19.10;57.20;;;;;;5043335;28;20282;-75
2021/05/07 09:50:37;;;;;;;;;;;19.10;57.10;;;;;;5043319;28;20384;-75
2021/05/07 09:53:10;;;;;;;;;;;19.20;57.10;;;;;;5046636;28;19959;-76
2021/05/07 09:55:39;;;;;;;;;;;19.30;57.00;;;;;;5046555;28;19920;-75
2021/05/07 09:58:11;;;;;;;;;;;19.20;56.90;;;;;;5029835;28;19913;-75
2021/05/07 10:00:40;;;;;;;;;;;19.20;56.80;;;;;;5041209;28;19928;-75
2021/05/07 10:03:09;;;;;;;;;;;19.20;57.00;;;;;;5030994;28;19924;-75
2021/05/07 10:05:39;;;;;;;;;;;19.10;57.20;;;;;;5030339;28;19921;-75
2021/05/07 10:08:14;;;;;;;;;;;19.10;57.30;;;;;;5048348;28;19913;-75
2021/05/07 10:10:45;;;;;;;;;;;19.10;57.20;;;;;;5029707;28;20354;-77
2021/05/07 10:13:36;;;;;;;;;;;19.10;57.20;;;;;;5028617;28;19916;-75
2021/05/07 10:16:11;;;;;;;;;;;19.10;57.20;;;;;;5039468;28;20366;-76
2021/05/07 10:18:41;;;;;;;;;;;19.20;57.10;;;;;;5048482;28;19949;-77
2021/05/07 10:21:13;;;;;;;;;;;19.20;57.00;;;;;;5048866;28;20413;-76
2021/05/07 10:23:52;;;;;;;;;;;19.20;57.00;;;;;;5032587;28;19917;-76
2021/05/07 10:26:17;;;;;;;;;;;19.20;57.00;;;;;;5047640;28;19913;-75
2021/05/07 10:28:47;;;;;;;;;;;19.20;57.00;;;;;;5046682;28;19967;-76
2021/05/07 10:31:22;;;;;;;;;;;19.20;57.00;;;;;;5037529;28;19920;-75
2021/05/07 10:33:58;;;;;;;;;;;19.20;57.00;;;;;;5041202;28;19959;-76
2021/05/07 10:36:37;;;;;;;;;;;19.20;57.00;;;;;;5049853;28;19927;-76
2021/05/07 10:39:08;;;;;;;;;;;19.20;57.10;;;;;;5047247;28;19917;-76
2021/05/07 10:41:36;;;;;;;;;;;19.10;57.20;;;;;;5054297;28;19963;-76
2021/05/07 10:44:05;;;;;;;;;;;19.00;57.40;;;;;;5047300;28;20341;-76
2021/05/07 10:46:31;;;;;;;;;;;19.00;57.40;;;;;;5037495;28;19948;-76
2021/05/07 10:49:01;;;;;;;;;;;19.10;57.30;;;;;;5054480;28;20384;-75
2021/05/07 10:51:32;;;;;;;;;;;19.10;57.10;;;;;;5052053;28;19952;-76
2021/05/07 10:54:31;;;;;;;;;;;19.20;57.00;;;;;;5037368;28;19921;-76
2021/05/07 10:57:01;;;;;;;;;;;19.30;56.80;;;;;;5046139;28;19988;-76
2021/05/07 10:59:27;;;;;;;;;;;19.30;56.60;;;;;;5029367;28;19931;-76
2021/05/07 11:01:59;;;;;;;;;;;19.30;56.50;;;;;;5029407;28;20271;-76
2021/05/07 11:04:48;;;;;;;;;;;19.30;56.40;;;;;;5031088;28;19920;-76
2021/05/07 11:08:15;;;;;;;;;;;19.40;56.30;;;;;;5030885;28;19923;-76
2021/05/07 11:10:26;;;;;;;;;;;19.30;56.40;;;;;;5045706;28;19929;-77
2021/05/07 11:13:04;;;;;;;;;;;19.40;56.30;;;;;;5041597;28;19960;-78
2021/05/07 11:15:30;;;;;;;;;;;19.40;56.30;;;;;;5031779;28;20282;-78
2021/05/07 11:18:05;;;;;;;;;;;19.40;56.30;;;;;;5035173;28;19916;-77
2021/05/07 11:20:35;;;;;;;;;;;19.40;56.30;;;;;;5028692;28;20011;-80
2021/05/07 11:23:05;;;;;;;;;;;19.30;56.40;;;;;;5051488;28;19924;-77
2021/05/07 11:25:33;;;;;;;;;;;19.30;56.70;;;;;;5049092;28;19921;-79
2021/05/07 11:28:11;;;;;;;;;;;19.20;56.90;;;;;;5045582;28;20327;-77
2021/05/07 11:30:48;;;;;;;;;;;19.10;57.10;;;;;;5049108;28;20367;-77
2021/05/07 11:33:14;;;;;;;;;;;19.10;57.10;;;;;;5047162;28;20346;-77
2021/05/07 11:35:39;;;;;;;;;;;19.10;57.10;;;;;;5049989;28;19920;-76
2021/05/07 11:38:10;;;;;;;;;;;19.10;57.20;;;;;;5047252;28;19920;-77
2021/05/07 11:40:37;;;;;;;;;;;19.10;57.20;;;;;;5049294;28;19963;-76
2021/05/07 11:43:10;;;;;;;;;;;19.10;57.10;;;;;;5050693;28;19916;-77
2021/05/07 11:45:35;;;;;;;;;;;19.10;57.10;;;;;;5046897;28;19920;-76
2021/05/07 11:48:12;;;;;;;;;;;19.10;57.20;;;;;;5050141;28;19938;-76
2021/05/07 11:50:45;;;;;;;;;;;19.10;57.20;;;;;;5057857;28;19948;-76
2021/05/07 11:53:21;;;;;;;;;;;19.00;57.30;;;;;;5043031;28;20397;-76
2021/05/07 11:55:47;;;;;;;;;;;19.00;57.40;;;;;;5053451;28;19921;-76
2021/05/07 11:58:13;;;;;;;;;;;19.00;57.40;;;;;;5052967;28;19920;-76
2021/05/07 12:00:39;;;;;;;;;;;19.00;57.50;;;;;;5043355;28;20027;-76
2021/05/07 12:03:05;;;;;;;;;;;19.00;57.50;;;;;;5030175;28;19917;-78
2021/05/07 12:05:31;;;;;;;;;;;19.00;57.60;;;;;;5031545;28;19916;-78
2021/05/07 12:07:57;;;;;;;;;;;18.90;57.60;;;;;;5050617;28;19920;-78
2021/05/07 12:10:23;;;;;;;;;;;18.90;57.70;;;;;;5033001;28;19928;-78
2021/05/07 12:12:48;;;;;;;;;;;18.90;57.70;;;;;;5052102;28;19982;-77
2021/05/07 12:15:14;;;;;;;;;;;18.90;57.70;;;;;;5050115;28;20358;-77
2021/05/07 12:17:44;;;;;;;;;;;19.00;57.70;;;;;;5032183;28;20309;-77
2021/05/07 12:20:13;;;;;;;;;;;18.90;57.70;;;;;;5050790;28;20015;-76
2021/05/07 12:22:45;;;;;;;;;;;18.90;57.60;;;;;;5045566;28;19960;-76
2021/05/07 12:25:15;;;;;;;;;;;18.90;57.70;;;;;;5053873;28;19916;-76
2021/05/07 12:27:40;;;;;;;;;;;18.90;57.70;;;;;;5032402;28;20374;-76
2021/05/07 12:30:26;;;;;;;;;;;18.90;57.70;;;;;;5029376;28;19913;-78
2021/05/07 12:32:53;;;;;;;;;;;18.80;58.00;;;;;;5049943;28;19936;-78
2021/05/07 12:35:39;;;;;;;;;;;18.90;59.10;;;;;;5051259;28;20023;-78
2021/05/07 12:38:22;;;;;;;;;;;18.90;59.10;;;;;;5051046;28;20346;-78
2021/05/07 12:40:52;;;;;;;;;;;18.90;59.50;;;;;;5051380;28;19971;-79
2021/05/07 12:43:18;;;;;;;;;;;18.90;59.50;;;;;;5034461;28;19943;-78
2021/05/07 12:45:47;;;;;;;;;;;19.00;59.60;;;;;;5049249;28;19920;-78
2021/05/07 12:48:13;;;;;;;;;;;19.00;59.70;;;;;;5035172;28;20429;-78
2021/05/07 12:50:38;;;;;;;;;;;19.00;60.00;;;;;;5031452;28;19913;-79
2021/05/07 12:53:08;;;;;;;;;;;19.00;59.80;;;;;;5030072;28;20008;-79
2021/05/07 12:55:35;;;;;;;;;;;19.00;59.90;;;;;;5027909;28;20324;-80
2021/05/07 12:58:00;;;;;;;;;;;19.00;59.90;;;;;;5049277;28;19920;-79
2021/05/07 13:00:26;;;;;;;;;;;19.10;59.80;;;;;;5025219;28;19917;-80
2021/05/07 13:02:51;;;;;;;;;;;19.10;59.80;;;;;;5045156;28;20007;-78
2021/05/07 13:05:17;;;;;;;;;;;19.10;59.80;;;;;;5029456;28;19943;-78
2021/05/07 13:07:42;;;;;;;;;;;19.10;59.80;;;;;;5029478;28;19913;-78
2021/05/07 13:10:08;;;;;;;;;;;19.10;59.90;;;;;;5052036;28;19921;-78
2021/05/07 13:12:34;;;;;;;;;;;19.10;59.90;;;;;;5023617;28;19952;-78
2021/05/07 13:15:04;;;;;;;;;;;19.10;59.80;;;;;;5024997;28;19928;-78
2021/05/07 13:17:34;;;;;;;;;;;19.10;59.90;;;;;;5033254;28;19975;-78
2021/05/07 13:20:05;;;;;;;;;;;19.10;59.80;;;;;;5054587;28;19921;-77
2021/05/07 13:22:30;;;;;;;;;;;19.20;59.80;;;;;;5028405;28;19966;-77
2021/05/07 13:24:56;;;;;;;;;;;19.10;59.80;;;;;;5030580;28;20316;-79
2021/05/07 13:27:22;;;;;;;;;;;19.10;60.00;;;;;;5030623;28;20415;-78
2021/05/07 13:29:47;;;;;;;;;;;19.10;60.50;;;;;;5044632;28;19987;-81
2021/05/07 13:32:17;;;;;;;;;;;19.10;60.70;;;;;;5046449;28;19917;-77
2021/05/07 13:34:47;;;;;;;;;;;19.10;60.70;;;;;;5027908;28;19912;-78
2021/05/07 13:37:13;;;;;;;;;;;19.10;60.60;;;;;;5027239;28;19987;-78
2021/05/07 13:39:38;;;;;;;;;;;19.00;60.60;;;;;;5044639;28;19916;-78
2021/05/07 13:42:04;;;;;;;;;;;19.10;60.50;;;;;;5029499;28;19972;-78
2021/05/07 13:44:29;;;;;;;;;;;19.10;60.50;;;;;;5046516;28;20055;-78
2021/05/07 13:46:55;;;;;;;;;;;19.00;60.60;;;;;;5047123;28;19920;-79
2021/05/07 13:49:20;;;;;;;;;;;19.10;60.50;;;;;;5028597;28;19920;-78
2021/05/07 13:51:46;;;;;;;;;;;19.00;60.50;;;;;;5030899;28;19916;-79
2021/05/07 13:54:11;;;;;;;;;;;19.10;60.50;;;;;;5028270;28;19922;-78
2021/05/07 13:56:37;;;;;;;;;;;19.20;60.40;;;;;;5027235;28;19921;-78
2021/05/07 13:59:02;;;;;;;;;;;19.20;60.10;;;;;;5028821;28;19913;-79
2021/05/07 14:01:33;;;;;;;;;;;19.20;60.10;;;;;;5049894;28;19962;-78
2021/05/07 14:03:59;;;;;;;;;;;19.20;60.10;;;;;;5031974;28;19928;-78
2021/05/07 14:06:29;;;;;;;;;;;19.20;60.20;;;;;;5029826;28;19916;-78
2021/05/07 14:09:09;;;;;;;;;;;19.10;60.50;;;;;;5030065;28;19925;-78
2021/05/07 14:11:39;;;;;;;;;;;19.10;60.70;;;;;;5035523;28;19912;-78
2021/05/07 14:14:10;;;;;;;;;;;19.00;60.70;;;;;;5049666;28;20401;-78
2021/05/07 14:16:36;;;;;;;;;;;19.00;60.80;;;;;;5049899;28;19919;-78
2021/05/07 14:19:16;;;;;;;;;;;19.10;60.70;;;;;;5050014;28;19998;-79
2021/05/07 14:21:43;;;;;;;;;;;19.10;60.60;;;;;;5050003;28;19924;-78
2021/05/07 14:24:23;;;;;;;;;;;;;;;;;;;;;
2021/05/07 14:26:55;;;;;;;;;;;19.10;60.40;;;;;;5050430;28;19916;-77
2021/05/07 14:29:23;;;;;;;;;;;19.20;60.30;;;;;;5033263;28;20090;-78
2021/05/07 14:31:57;;;;;;;;;;;19.20;60.20;;;;;;5050513;28;20323;-78
2021/05/07 14:34:27;;;;;;;;;;;19.20;60.30;;;;;;5032287;28;19996;-82
2021/05/07 14:36:57;;;;;;;;;;;19.20;60.30;;;;;;5047285;28;19913;-78